createdAt,value
2022-11-28T00:00:32.302Z,3.000000000000057
2022-11-28T00:01:32.274Z,3.000000000000057
2022-11-28T00:02:32.451Z,3.000000000000057
2022-11-28T00:03:32.352Z,3.000000000000057
2022-11-28T00:04:32.310Z,3.000000000000057
2022-11-28T00:05:32.246Z,3.000000000000057
2022-11-28T00:06:32.283Z,3.000000000000057
2022-11-28T00:07:32.326Z,3.000000000000057
2022-11-28T00:08:32.268Z,3.000000000000057
2022-11-28T00:09:32.291Z,3.000000000000057
2022-11-28T00:10:32.306Z,3.000000000000057
2022-11-28T00:11:32.286Z,3.000000000000057
2022-11-28T00:12:32.279Z,3.000000000000057
2022-11-28T00:13:32.308Z,3.000000000000057
2022-11-28T00:14:32.270Z,3.000000000000057
2022-11-28T00:15:32.292Z,3.000000000000057
2022-11-28T00:16:32.374Z,3.000000000000057
2022-11-28T00:17:32.269Z,3.000000000000057
2022-11-28T00:18:32.257Z,3.000000000000057
2022-11-28T00:19:32.277Z,3.000000000000057
2022-11-28T00:20:32.299Z,3.000000000000057
2022-11-28T00:21:32.290Z,3.000000000000057
2022-11-28T00:22:32.264Z,3.000000000000057
2022-11-28T00:23:32.259Z,3.000000000000057
2022-11-28T00:24:32.278Z,3.000000000000057
2022-11-28T00:25:32.295Z,3.000000000000057
2022-11-28T00:26:32.268Z,3.000000000000057
2022-11-28T00:27:32.275Z,3.000000000000057
2022-11-28T00:28:32.302Z,3.000000000000057
2022-11-28T00:29:32.565Z,3.000000000000057
2022-11-28T00:30:32.239Z,3.000000000000057
2022-11-28T00:31:32.391Z,3.000000000000057
2022-11-28T00:32:32.265Z,3.000000000000057
2022-11-28T00:33:32.251Z,3.000000000000057
2022-11-28T00:34:32.585Z,2.888888888888914
2022-11-28T00:35:32.277Z,2.888888888888914
2022-11-28T00:36:32.307Z,2.888888888888914
2022-11-28T00:37:32.294Z,2.888888888888914
2022-11-28T00:38:32.236Z,2.888888888888914
2022-11-28T00:39:32.381Z,2.888888888888914
2022-11-28T00:40:32.289Z,2.888888888888914
2022-11-28T00:41:32.289Z,2.888888888888914
2022-11-28T00:42:32.266Z,2.888888888888914
2022-11-28T00:43:32.300Z,2.888888888888914
2022-11-28T00:44:32.289Z,2.888888888888914
2022-11-28T00:45:32.362Z,2.888888888888914
2022-11-28T00:46:32.248Z,2.888888888888914
2022-11-28T00:47:32.282Z,2.888888888888914
2022-11-28T00:48:32.305Z,2.7777777777778283
2022-11-28T00:49:32.299Z,2.7777777777778283
2022-11-28T00:50:32.299Z,2.7777777777778283
2022-11-28T00:51:32.365Z,2.7777777777778283
2022-11-28T00:52:32.336Z,2.7777777777778283
2022-11-28T00:53:32.307Z,2.7777777777778283
2022-11-28T00:54:32.338Z,2.7777777777778283
2022-11-28T00:55:32.284Z,2.7777777777778283
2022-11-28T00:56:32.275Z,2.7777777777778283
2022-11-28T00:57:32.255Z,2.7777777777778283
2022-11-28T00:58:32.242Z,2.7777777777778283
2022-11-28T00:59:32.291Z,2.7777777777778283
2022-11-28T01:00:32.317Z,2.7777777777778283
2022-11-28T01:01:32.421Z,2.7777777777778283
2022-11-28T01:02:32.338Z,2.7222222222222285
2022-11-28T01:03:32.283Z,2.7222222222222285
2022-11-28T01:04:32.325Z,2.7222222222222285
2022-11-28T01:05:32.302Z,2.7222222222222285
2022-11-28T01:06:32.285Z,2.7222222222222285
2022-11-28T01:07:32.369Z,2.7222222222222285
2022-11-28T01:08:32.256Z,2.7222222222222285
2022-11-28T01:09:32.286Z,2.7222222222222285
2022-11-28T01:10:32.242Z,2.6111111111111427
2022-11-28T01:11:32.253Z,2.6111111111111427
2022-11-28T01:12:32.295Z,2.7222222222222285
2022-11-28T01:13:32.288Z,2.7222222222222285
2022-11-28T01:14:32.260Z,2.7222222222222285
2022-11-28T01:15:32.295Z,2.7222222222222285
2022-11-28T01:16:32.401Z,2.6111111111111427
2022-11-28T01:17:32.290Z,2.6111111111111427
2022-11-28T01:18:32.256Z,2.6111111111111427
2022-11-28T01:19:32.354Z,2.7222222222222285
2022-11-28T01:20:32.317Z,2.7222222222222285
2022-11-28T01:21:32.297Z,2.7222222222222285
2022-11-28T01:22:32.236Z,2.7222222222222285
2022-11-28T01:23:32.281Z,2.7222222222222285
2022-11-28T01:24:32.367Z,2.7222222222222285
2022-11-28T01:25:32.323Z,2.7222222222222285
2022-11-28T01:26:32.252Z,2.7222222222222285
2022-11-28T01:27:32.261Z,2.7222222222222285
2022-11-28T01:28:32.280Z,2.7222222222222285
2022-11-28T01:29:32.275Z,2.7222222222222285
2022-11-28T01:30:32.308Z,2.7222222222222285
2022-11-28T01:31:32.394Z,2.7222222222222285
2022-11-28T01:32:32.295Z,2.7222222222222285
2022-11-28T01:33:32.295Z,2.7222222222222285
2022-11-28T01:34:32.229Z,2.7222222222222285
2022-11-28T01:35:32.355Z,2.7222222222222285
2022-11-28T01:36:32.292Z,2.7222222222222285
2022-11-28T01:37:32.290Z,2.7222222222222285
2022-11-28T01:38:32.256Z,2.7222222222222285
2022-11-28T01:39:32.305Z,2.7222222222222285
2022-11-28T01:40:32.435Z,2.7222222222222285
2022-11-28T01:41:32.433Z,2.7222222222222285
2022-11-28T01:42:32.426Z,2.7222222222222285
2022-11-28T01:43:32.425Z,2.7222222222222285
2022-11-28T01:44:32.396Z,2.7222222222222285
2022-11-28T01:45:32.388Z,2.7222222222222285
2022-11-28T01:46:32.497Z,2.7222222222222285
2022-11-28T01:47:32.351Z,2.7222222222222285
2022-11-28T01:48:32.457Z,2.7222222222222285
2022-11-28T01:49:32.280Z,2.7222222222222285
2022-11-28T01:50:32.278Z,2.7222222222222285
2022-11-28T01:51:32.321Z,2.7222222222222285
2022-11-28T01:52:32.264Z,2.7222222222222285
2022-11-28T01:53:32.266Z,2.7222222222222285
2022-11-28T01:54:32.280Z,2.7222222222222285
2022-11-28T01:55:32.258Z,2.7222222222222285
2022-11-28T01:56:32.276Z,2.7222222222222285
2022-11-28T01:57:32.265Z,2.7222222222222285
2022-11-28T01:58:32.250Z,2.7222222222222285
2022-11-28T01:59:32.275Z,2.7222222222222285
2022-11-28T02:00:32.324Z,2.7222222222222285
2022-11-28T02:01:32.326Z,2.7222222222222285
2022-11-28T02:02:32.319Z,2.7222222222222285
2022-11-28T02:03:32.289Z,2.7222222222222285
2022-11-28T02:04:32.293Z,2.7222222222222285
2022-11-28T02:05:32.278Z,2.7222222222222285
2022-11-28T02:06:32.277Z,2.7222222222222285
2022-11-28T02:07:32.339Z,2.7222222222222285
2022-11-28T02:08:32.332Z,2.7222222222222285
2022-11-28T02:09:33.354Z,2.7222222222222285
2022-11-28T02:10:32.263Z,2.7222222222222285
2022-11-28T02:11:32.250Z,2.7222222222222285
2022-11-28T02:12:32.263Z,2.7222222222222285
2022-11-28T02:13:32.267Z,2.7222222222222285
2022-11-28T02:14:32.300Z,2.7222222222222285
2022-11-28T02:15:32.254Z,2.7777777777778283
2022-11-28T02:16:32.329Z,2.7777777777778283
2022-11-28T02:17:32.266Z,2.7777777777778283
2022-11-28T02:18:32.276Z,2.7777777777778283
2022-11-28T02:19:32.255Z,2.7222222222222285
2022-11-28T02:20:32.412Z,2.7222222222222285
2022-11-28T02:21:32.253Z,2.7222222222222285
2022-11-28T02:22:32.238Z,2.7222222222222285
2022-11-28T02:23:32.262Z,2.7222222222222285
2022-11-28T02:24:32.281Z,2.7222222222222285
2022-11-28T02:25:32.288Z,2.7222222222222285
2022-11-28T02:26:32.283Z,2.7222222222222285
2022-11-28T02:27:32.251Z,2.7222222222222285
2022-11-28T02:28:32.389Z,2.7222222222222285
2022-11-28T02:29:32.265Z,2.7222222222222285
2022-11-28T02:30:32.280Z,2.7222222222222285
2022-11-28T02:31:32.297Z,2.7222222222222285
2022-11-28T02:32:32.260Z,2.7222222222222285
2022-11-28T02:33:32.286Z,2.7222222222222285
2022-11-28T02:34:32.267Z,2.7222222222222285
2022-11-28T02:35:32.264Z,2.7222222222222285
2022-11-28T02:36:32.342Z,2.7222222222222285
2022-11-28T02:37:32.276Z,2.7222222222222285
2022-11-28T02:38:32.263Z,2.7222222222222285
2022-11-28T02:39:32.326Z,2.7222222222222285
2022-11-28T02:40:32.272Z,2.7222222222222285
2022-11-28T02:41:32.239Z,2.6111111111111427
2022-11-28T02:42:32.266Z,2.6111111111111427
2022-11-28T02:43:32.273Z,2.6111111111111427
2022-11-28T02:44:32.272Z,2.6111111111111427
2022-11-28T02:45:32.268Z,2.6111111111111427
2022-11-28T02:46:32.448Z,2.6111111111111427
2022-11-28T02:47:32.257Z,2.6111111111111427
2022-11-28T02:48:32.315Z,2.6111111111111427
2022-11-28T02:49:32.345Z,2.6111111111111427
2022-11-28T02:50:32.275Z,2.6111111111111427
2022-11-28T02:51:32.420Z,2.6111111111111427
2022-11-28T02:52:32.276Z,2.500000000000057
2022-11-28T02:53:32.369Z,2.500000000000057
2022-11-28T02:54:32.257Z,2.500000000000057
2022-11-28T02:55:32.257Z,2.6111111111111427
2022-11-28T02:56:32.284Z,2.6111111111111427
2022-11-28T02:57:32.602Z,2.6111111111111427
2022-11-28T02:58:32.247Z,2.500000000000057
2022-11-28T02:59:32.506Z,2.500000000000057
2022-11-28T03:00:32.304Z,2.500000000000057
2022-11-28T03:01:32.336Z,2.500000000000057
2022-11-28T03:02:32.444Z,2.6111111111111427
2022-11-28T03:03:32.312Z,2.6111111111111427
2022-11-28T03:04:32.254Z,2.6111111111111427
2022-11-28T03:05:32.303Z,2.7222222222222285
2022-11-28T03:06:32.338Z,2.7222222222222285
2022-11-28T03:07:32.372Z,2.7222222222222285
2022-11-28T03:08:32.321Z,2.7222222222222285
2022-11-28T03:09:32.306Z,2.7222222222222285
2022-11-28T03:10:32.299Z,2.7222222222222285
2022-11-28T03:11:32.263Z,2.7222222222222285
2022-11-28T03:12:32.413Z,2.7222222222222285
2022-11-28T03:13:32.403Z,2.7222222222222285
2022-11-28T03:14:32.434Z,2.7222222222222285
2022-11-28T03:15:32.303Z,2.7222222222222285
2022-11-28T03:16:32.494Z,2.7222222222222285
2022-11-28T03:17:32.343Z,2.7222222222222285
2022-11-28T03:18:32.369Z,2.7222222222222285
2022-11-28T03:19:32.349Z,2.7222222222222285
2022-11-28T03:20:32.312Z,2.7222222222222285
2022-11-28T03:21:32.404Z,2.7222222222222285
2022-11-28T03:22:32.434Z,2.6111111111111427
2022-11-28T03:23:32.349Z,2.6111111111111427
2022-11-28T03:24:32.359Z,2.6111111111111427
2022-11-28T03:25:32.290Z,2.6111111111111427
2022-11-28T03:26:32.339Z,2.6111111111111427
2022-11-28T03:27:32.397Z,2.6111111111111427
2022-11-28T03:28:32.388Z,2.6111111111111427
2022-11-28T03:29:32.260Z,2.6111111111111427
2022-11-28T03:30:32.493Z,2.6111111111111427
2022-11-28T03:31:32.450Z,2.6111111111111427
2022-11-28T03:32:32.313Z,2.6111111111111427
2022-11-28T03:33:32.435Z,2.7222222222222285
2022-11-28T03:34:32.294Z,2.7222222222222285
2022-11-28T03:35:32.240Z,2.7777777777778283
2022-11-28T03:36:32.272Z,2.7777777777778283
2022-11-28T03:37:32.273Z,2.7777777777778283
2022-11-28T03:38:32.280Z,2.7777777777778283
2022-11-28T03:39:32.245Z,2.7777777777778283
2022-11-28T03:40:32.400Z,2.888888888888914
2022-11-28T03:41:32.303Z,2.888888888888914
2022-11-28T03:42:32.301Z,2.888888888888914
2022-11-28T03:43:32.275Z,2.888888888888914
2022-11-28T03:44:32.245Z,2.888888888888914
2022-11-28T03:45:32.271Z,2.888888888888914
2022-11-28T03:46:32.301Z,2.888888888888914
2022-11-28T03:47:32.285Z,2.888888888888914
2022-11-28T03:48:32.286Z,3.000000000000057
2022-11-28T03:49:32.243Z,3.000000000000057
2022-11-28T03:50:32.253Z,3.000000000000057
2022-11-28T03:51:32.233Z,3.000000000000057
2022-11-28T03:52:32.271Z,3.000000000000057
2022-11-28T03:53:33.256Z,3.000000000000057
2022-11-28T03:54:32.981Z,3.000000000000057
2022-11-28T03:55:36.975Z,3.000000000000057
2022-11-28T03:56:40.876Z,3.000000000000057
2022-11-28T03:57:44.970Z,3.000000000000057
2022-11-28T03:58:48.888Z,3.000000000000057
2022-11-28T03:59:52.860Z,3.000000000000057
2022-11-28T04:00:56.946Z,3.000000000000057
2022-11-28T04:02:00.900Z,3.000000000000057
2022-11-28T04:03:05.033Z,3.000000000000057
2022-11-28T04:04:08.871Z,3.000000000000057
2022-11-28T04:05:12.898Z,3.000000000000057
2022-11-28T04:06:16.887Z,3.000000000000057
2022-11-28T04:07:20.981Z,3.000000000000057
2022-11-28T04:08:24.883Z,3.000000000000057
2022-11-28T04:09:28.905Z,3.000000000000057
2022-11-28T04:10:32.234Z,3.000000000000057
2022-11-28T04:11:32.257Z,3.000000000000057
2022-11-28T04:12:32.258Z,2.888888888888914
2022-11-28T04:13:32.245Z,2.888888888888914
2022-11-28T04:14:32.255Z,3.000000000000057
2022-11-28T04:15:32.267Z,3.000000000000057
2022-11-28T04:16:32.330Z,3.000000000000057
2022-11-28T04:17:32.265Z,3.000000000000057
2022-11-28T04:18:32.261Z,3.000000000000057
2022-11-28T04:19:32.234Z,3.000000000000057
2022-11-28T04:20:32.303Z,3.000000000000057
2022-11-28T04:21:32.240Z,3.000000000000057
2022-11-28T04:22:32.313Z,3.000000000000057
2022-11-28T04:23:32.260Z,3.000000000000057
2022-11-28T04:24:32.334Z,3.000000000000057
2022-11-28T04:25:32.258Z,3.000000000000057
2022-11-28T04:26:32.255Z,3.000000000000057
2022-11-28T04:27:32.236Z,3.000000000000057
2022-11-28T04:28:32.428Z,2.888888888888914
2022-11-28T04:29:32.271Z,3.000000000000057
2022-11-28T04:30:32.252Z,3.000000000000057
2022-11-28T04:31:32.283Z,3.000000000000057
2022-11-28T04:32:32.258Z,2.888888888888914
2022-11-28T04:33:32.251Z,2.888888888888914
2022-11-28T04:34:32.239Z,2.888888888888914
2022-11-28T04:35:32.262Z,2.888888888888914
2022-11-28T04:36:32.258Z,2.888888888888914
2022-11-28T04:37:32.264Z,2.888888888888914
2022-11-28T04:38:32.239Z,2.888888888888914
2022-11-28T04:39:32.228Z,2.888888888888914
2022-11-28T04:40:32.274Z,2.888888888888914
2022-11-28T04:41:32.278Z,2.888888888888914
2022-11-28T04:42:32.262Z,2.888888888888914
2022-11-28T04:43:32.249Z,2.888888888888914
2022-11-28T04:44:32.289Z,2.888888888888914
2022-11-28T04:45:32.509Z,2.888888888888914
2022-11-28T04:46:32.273Z,2.888888888888914
2022-11-28T04:47:32.323Z,2.888888888888914
2022-11-28T04:48:34.440Z,2.888888888888914
2022-11-28T04:49:32.250Z,2.888888888888914
2022-11-28T04:50:32.224Z,2.888888888888914
2022-11-28T04:51:32.287Z,2.888888888888914
2022-11-28T04:52:32.281Z,2.888888888888914
2022-11-28T04:53:32.275Z,2.888888888888914
2022-11-28T04:54:32.235Z,2.888888888888914
2022-11-28T04:55:32.257Z,2.7777777777778283
2022-11-28T04:56:32.248Z,2.7777777777778283
2022-11-28T04:57:32.247Z,2.7777777777778283
2022-11-28T04:58:32.212Z,2.7777777777778283
2022-11-28T04:59:32.261Z,2.7777777777778283
2022-11-28T05:00:32.280Z,2.7777777777778283
2022-11-28T05:01:32.321Z,2.7777777777778283
2022-11-28T05:02:32.291Z,2.7777777777778283
2022-11-28T05:03:32.785Z,2.7777777777778283
2022-11-28T05:04:32.275Z,2.7777777777778283
2022-11-28T05:05:32.264Z,2.7777777777778283
2022-11-28T05:06:32.290Z,2.7777777777778283
2022-11-28T05:07:32.358Z,2.7777777777778283
2022-11-28T05:08:32.368Z,2.7777777777778283
2022-11-28T05:09:32.365Z,2.7777777777778283
2022-11-28T05:10:32.257Z,2.7777777777778283
2022-11-28T05:11:32.293Z,2.7777777777778283
2022-11-28T05:12:32.236Z,2.7777777777778283
2022-11-28T05:13:32.258Z,2.7777777777778283
2022-11-28T05:14:32.284Z,2.7777777777778283
2022-11-28T05:15:32.420Z,2.7777777777778283
2022-11-28T05:16:32.278Z,2.888888888888914
2022-11-28T05:17:32.203Z,2.888888888888914
2022-11-28T05:18:32.305Z,2.888888888888914
2022-11-28T05:19:32.261Z,2.888888888888914
2022-11-28T05:20:32.305Z,2.888888888888914
2022-11-28T05:21:32.273Z,2.888888888888914
2022-11-28T05:22:32.256Z,2.7777777777778283
2022-11-28T05:23:32.265Z,2.7777777777778283
2022-11-28T05:24:32.589Z,2.7777777777778283
2022-11-28T05:25:32.233Z,2.7777777777778283
2022-11-28T05:26:32.264Z,2.888888888888914
2022-11-28T05:27:32.231Z,2.888888888888914
2022-11-28T05:28:32.355Z,2.888888888888914
2022-11-28T05:29:32.223Z,2.888888888888914
2022-11-28T05:30:32.242Z,2.888888888888914
2022-11-28T05:31:32.364Z,2.888888888888914
2022-11-28T05:32:32.230Z,2.888888888888914
2022-11-28T05:33:32.229Z,2.888888888888914
2022-11-28T05:34:32.294Z,3.000000000000057
2022-11-28T05:35:32.240Z,2.888888888888914
2022-11-28T05:36:32.291Z,2.888888888888914
2022-11-28T05:37:32.229Z,2.888888888888914
2022-11-28T05:38:32.256Z,2.888888888888914
2022-11-28T05:39:32.274Z,2.888888888888914
2022-11-28T05:40:32.287Z,2.888888888888914
2022-11-28T05:41:32.220Z,2.888888888888914
2022-11-28T05:42:32.263Z,2.888888888888914
2022-11-28T05:43:32.221Z,2.888888888888914
2022-11-28T05:44:32.252Z,2.888888888888914
2022-11-28T05:45:32.298Z,2.888888888888914
2022-11-28T05:46:32.225Z,2.888888888888914
2022-11-28T05:47:32.253Z,3.000000000000057
2022-11-28T05:48:32.257Z,3.000000000000057
2022-11-28T05:49:32.249Z,3.000000000000057
2022-11-28T05:50:37.018Z,3.000000000000057
2022-11-28T05:51:32.267Z,3.000000000000057
2022-11-28T05:52:32.399Z,3.000000000000057
2022-11-28T05:53:32.283Z,3.000000000000057
2022-11-28T05:54:32.279Z,3.000000000000057
2022-11-28T05:55:32.227Z,3.000000000000057
2022-11-28T05:56:32.249Z,3.000000000000057
2022-11-28T05:57:32.257Z,3.000000000000057
2022-11-28T05:58:32.270Z,3.000000000000057
2022-11-28T05:59:32.259Z,3.000000000000057
2022-11-28T06:00:32.247Z,3.000000000000057
2022-11-28T06:01:32.347Z,3.000000000000057
2022-11-28T06:02:32.422Z,3.000000000000057
2022-11-28T06:03:32.340Z,3.000000000000057
2022-11-28T06:04:32.355Z,3.000000000000057
2022-11-28T06:05:41.608Z,3.000000000000057
2022-11-28T06:06:32.241Z,3.000000000000057
2022-11-28T06:07:32.312Z,3.000000000000057
2022-11-28T06:08:32.334Z,3.000000000000057
2022-11-28T06:09:32.221Z,3.000000000000057
2022-11-28T06:10:32.419Z,3.000000000000057
2022-11-28T06:11:32.254Z,3.000000000000057
2022-11-28T06:12:32.244Z,3.000000000000057
2022-11-28T06:13:32.221Z,3.000000000000057
2022-11-28T06:14:32.248Z,3.000000000000057
2022-11-28T06:15:36.175Z,3.000000000000057
2022-11-28T06:16:32.329Z,3.000000000000057
2022-11-28T06:17:32.201Z,3.000000000000057
2022-11-28T06:18:32.290Z,3.000000000000057
2022-11-28T06:19:32.266Z,3.000000000000057
2022-11-28T06:20:32.331Z,3.000000000000057
2022-11-28T06:21:32.288Z,3.000000000000057
2022-11-28T06:22:32.276Z,3.000000000000057
2022-11-28T06:23:32.295Z,3.000000000000057
2022-11-28T06:24:32.245Z,3.000000000000057
2022-11-28T06:25:32.243Z,3.2222222222222854
2022-11-28T06:26:32.261Z,3.2777777777778283
2022-11-28T06:27:32.270Z,3.2222222222222854
2022-11-28T06:28:32.264Z,3.1111111111111427
2022-11-28T06:29:32.224Z,3.1111111111111427
2022-11-28T06:30:32.250Z,3.1111111111111427
2022-11-28T06:31:32.307Z,3.000000000000057
2022-11-28T06:32:32.238Z,3.000000000000057
2022-11-28T06:33:32.293Z,3.000000000000057
2022-11-28T06:34:32.283Z,3.000000000000057
2022-11-28T06:35:32.272Z,3.000000000000057
2022-11-28T06:36:32.248Z,3.000000000000057
2022-11-28T06:37:32.241Z,3.000000000000057
2022-11-28T06:38:32.313Z,3.000000000000057
2022-11-28T06:39:32.244Z,3.000000000000057
2022-11-28T06:40:32.262Z,3.000000000000057
2022-11-28T06:41:32.223Z,3.000000000000057
2022-11-28T06:42:32.230Z,3.000000000000057
2022-11-28T06:43:32.261Z,3.000000000000057
2022-11-28T06:44:32.240Z,3.000000000000057
2022-11-28T06:45:32.252Z,3.000000000000057
2022-11-28T06:46:32.299Z,3.000000000000057
2022-11-28T06:47:32.266Z,3.000000000000057
2022-11-28T06:48:32.285Z,3.000000000000057
2022-11-28T06:49:32.237Z,3.000000000000057
2022-11-28T06:50:32.268Z,3.000000000000057
2022-11-28T06:51:32.262Z,3.000000000000057
2022-11-28T06:52:32.319Z,3.000000000000057
2022-11-28T06:53:32.222Z,3.000000000000057
2022-11-28T06:54:32.238Z,3.000000000000057
2022-11-28T06:55:32.239Z,3.000000000000057
2022-11-28T06:56:32.241Z,3.000000000000057
2022-11-28T06:57:32.235Z,3.000000000000057
2022-11-28T06:58:32.306Z,3.000000000000057
2022-11-28T06:59:32.257Z,3.000000000000057
2022-11-28T07:00:32.254Z,3.000000000000057
2022-11-28T07:01:32.295Z,3.000000000000057
2022-11-28T07:02:32.272Z,3.000000000000057
2022-11-28T07:03:32.185Z,3.000000000000057
2022-11-28T07:04:32.307Z,3.000000000000057
2022-11-28T07:05:32.304Z,3.000000000000057
2022-11-28T07:06:32.243Z,3.000000000000057
2022-11-28T07:07:32.265Z,3.000000000000057
2022-11-28T07:08:32.237Z,3.000000000000057
2022-11-28T07:09:32.314Z,3.000000000000057
2022-11-28T07:10:32.231Z,3.1111111111111427
2022-11-28T07:11:32.356Z,3.1111111111111427
2022-11-28T07:12:32.257Z,3.1111111111111427
2022-11-28T07:13:32.236Z,3.1111111111111427
2022-11-28T07:14:32.268Z,3.1111111111111427
2022-11-28T07:15:32.260Z,3.1111111111111427
2022-11-28T07:16:32.338Z,3.1111111111111427
2022-11-28T07:17:32.270Z,3.1111111111111427
2022-11-28T07:18:32.234Z,3.1111111111111427
2022-11-28T07:19:32.210Z,3.1111111111111427
2022-11-28T07:20:32.517Z,3.1111111111111427
2022-11-28T07:21:32.327Z,3.1111111111111427
2022-11-28T07:22:32.309Z,3.1111111111111427
2022-11-28T07:23:32.254Z,3.1111111111111427
2022-11-28T07:24:32.265Z,3.1111111111111427
2022-11-28T07:25:32.244Z,3.1111111111111427
2022-11-28T07:26:32.248Z,3.1111111111111427
2022-11-28T07:27:32.221Z,3.1111111111111427
2022-11-28T07:28:32.249Z,3.2222222222222854
2022-11-28T07:29:32.259Z,3.2222222222222854
2022-11-28T07:30:32.251Z,3.2222222222222854
2022-11-28T07:31:32.592Z,3.2222222222222854
2022-11-28T07:32:32.268Z,3.2222222222222854
2022-11-28T07:33:32.345Z,3.2222222222222854
2022-11-28T07:34:32.296Z,3.2222222222222854
2022-11-28T07:35:32.261Z,3.1111111111111427
2022-11-28T07:36:32.302Z,3.1111111111111427
2022-11-28T07:37:32.222Z,3.1111111111111427
2022-11-28T07:38:32.224Z,3.1111111111111427
2022-11-28T07:39:32.200Z,3.1111111111111427
2022-11-28T07:40:32.212Z,3.1111111111111427
2022-11-28T07:41:32.244Z,3.1111111111111427
2022-11-28T07:42:32.288Z,3.1111111111111427
2022-11-28T07:43:32.214Z,3.1111111111111427
2022-11-28T07:44:32.246Z,3.1111111111111427
2022-11-28T07:45:53.467Z,3.1111111111111427
2022-11-28T07:46:32.473Z,3.1111111111111427
2022-11-28T07:47:32.236Z,3.1111111111111427
2022-11-28T07:48:32.270Z,3.2222222222222854
2022-11-28T07:49:32.252Z,3.2222222222222854
2022-11-28T07:50:32.269Z,3.2222222222222854
2022-11-28T07:51:32.256Z,3.2222222222222854
2022-11-28T07:52:32.278Z,3.2222222222222854
2022-11-28T07:53:32.244Z,3.2222222222222854
2022-11-28T07:54:32.243Z,3.2222222222222854
2022-11-28T07:55:32.214Z,3.2222222222222854
2022-11-28T07:56:57.059Z,3.2222222222222854
2022-11-28T07:57:32.288Z,3.2222222222222854
2022-11-28T07:58:32.229Z,3.2222222222222854
2022-11-28T07:59:32.231Z,3.2222222222222854
2022-11-28T08:00:32.253Z,3.1111111111111427
2022-11-28T08:01:32.246Z,3.1111111111111427
2022-11-28T08:02:32.376Z,3.1111111111111427
2022-11-28T08:03:32.219Z,3.1111111111111427
2022-11-28T08:04:32.254Z,3.1111111111111427
2022-11-28T08:05:32.273Z,3.1111111111111427
2022-11-28T08:06:32.238Z,3.1111111111111427
2022-11-28T08:07:32.293Z,3.1111111111111427
2022-11-28T08:08:32.231Z,3.1111111111111427
2022-11-28T08:09:32.238Z,3.1111111111111427
2022-11-28T08:10:32.395Z,3.1111111111111427
2022-11-28T08:11:32.210Z,3.1111111111111427
2022-11-28T08:12:32.236Z,3.1111111111111427
2022-11-28T08:13:32.227Z,3.000000000000057
2022-11-28T08:14:32.252Z,3.000000000000057
2022-11-28T08:15:32.206Z,3.000000000000057
2022-11-28T08:16:32.301Z,3.000000000000057
2022-11-28T08:17:32.232Z,3.000000000000057
2022-11-28T08:18:32.297Z,3.000000000000057
2022-11-28T08:20:17.276Z,3.000000000000057
2022-11-28T08:20:32.316Z,3.000000000000057
2022-11-28T08:21:32.293Z,3.000000000000057
2022-11-28T08:22:32.404Z,3.1111111111111427
2022-11-28T08:23:32.269Z,3.1111111111111427
2022-11-28T08:24:32.231Z,3.1111111111111427
2022-11-28T08:25:32.241Z,3.1111111111111427
2022-11-28T08:26:32.242Z,3.1111111111111427
2022-11-28T08:27:32.215Z,3.1111111111111427
2022-11-28T08:28:32.293Z,3.1111111111111427
2022-11-28T08:29:32.239Z,3.1111111111111427
2022-11-28T08:30:32.275Z,3.1111111111111427
2022-11-28T08:31:32.226Z,3.1111111111111427
2022-11-28T08:32:32.353Z,3.1111111111111427
2022-11-28T08:33:32.226Z,3.1111111111111427
2022-11-28T08:34:32.234Z,3.1111111111111427
2022-11-28T08:35:32.253Z,3.1111111111111427
2022-11-28T08:36:32.285Z,3.1111111111111427
2022-11-28T08:37:32.226Z,3.1111111111111427
2022-11-28T08:38:32.308Z,3.1111111111111427
2022-11-28T08:39:32.209Z,3.1111111111111427
2022-11-28T08:40:32.225Z,3.1111111111111427
2022-11-28T08:41:32.247Z,3.1111111111111427
2022-11-28T08:42:32.336Z,3.1111111111111427
2022-11-28T08:43:32.236Z,3.1111111111111427
2022-11-28T08:44:32.250Z,3.1111111111111427
2022-11-28T08:45:32.337Z,3.1111111111111427
2022-11-28T08:46:32.249Z,3.2222222222222854
2022-11-28T08:47:32.254Z,3.2222222222222854
2022-11-28T08:48:32.374Z,3.2222222222222854
2022-11-28T08:49:32.217Z,3.2222222222222854
2022-11-28T08:50:32.297Z,3.2222222222222854
2022-11-28T08:51:32.234Z,3.2222222222222854
2022-11-28T08:52:32.234Z,3.2222222222222854
2022-11-28T08:53:32.217Z,3.2222222222222854
2022-11-28T08:54:33.180Z,3.2222222222222854
2022-11-28T08:55:41.583Z,3.2222222222222854
2022-11-28T08:56:40.745Z,3.2222222222222854
2022-11-28T08:57:44.813Z,3.2222222222222854
2022-11-28T08:58:48.710Z,3.2222222222222854
2022-11-28T08:59:52.735Z,3.2222222222222854
2022-11-28T09:00:56.988Z,3.2222222222222854
2022-11-28T09:02:00.763Z,3.2222222222222854
2022-11-28T09:03:04.814Z,3.2222222222222854
2022-11-28T09:04:08.947Z,3.2222222222222854
2022-11-28T09:05:12.804Z,3.2222222222222854
2022-11-28T09:06:16.748Z,3.2222222222222854
2022-11-28T09:07:20.821Z,3.2222222222222854
2022-11-28T09:08:24.722Z,3.2222222222222854
2022-11-28T09:09:32.588Z,3.2222222222222854
2022-11-28T09:10:32.197Z,3.2222222222222854
2022-11-28T09:11:32.243Z,3.2222222222222854